sensor_id;sensor_type;location;lat;lon;timestamp;temperature;humidity
45207;DHT22;30950;53.086;21.576;2024-03-23T00:55:34;8.70;99.90
45207;DHT22;30950;53.086;21.576;2024-03-23T00:58:00;8.70;99.90
45207;DHT22;30950;53.086;21.576;2024-03-23T01:00:26;8.70;99.90
45207;DHT22;30950;53.086;21.576;2024-03-23T01:02:53;8.70;99.90
45207;DHT22;30950;53.086;21.576;2024-03-23T01:05:19;8.70;99.90
45207;DHT22;30950;53.086;21.576;2024-03-23T01:07:46;8.70;99.90
45207;DHT22;30950;53.086;21.576;2024-03-23T01:10:12;8.70;99.90
45207;DHT22;30950;53.086;21.576;2024-03-23T01:12:38;8.70;99.90
45207;DHT22;30950;53.086;21.576;2024-03-23T01:15:04;8.70;99.90
45207;DHT22;30950;53.086;21.576;2024-03-23T01:17:31;8.70;99.90
45207;DHT22;30950;53.086;21.576;2024-03-23T01:19:57;8.70;99.90
45207;DHT22;30950;53.086;21.576;2024-03-23T01:22:24;8.70;99.90
45207;DHT22;30950;53.086;21.576;2024-03-23T01:24:50;8.70;99.90
45207;DHT22;30950;53.086;21.576;2024-03-23T01:27:16;8.70;99.90
45207;DHT22;30950;53.086;21.576;2024-03-23T01:29:42;8.70;99.90
45207;DHT22;30950;53.086;21.576;2024-03-23T01:32:09;8.70;99.90
45207;DHT22;30950;53.086;21.576;2024-03-23T01:34:35;8.70;99.90
45207;DHT22;30950;53.086;21.576;2024-03-23T01:37:01;8.80;99.90
45207;DHT22;30950;53.086;21.576;2024-03-23T01:39:27;8.80;99.90
45207;DHT22;30950;53.086;21.576;2024-03-23T01:41:54;8.80;99.90
45207;DHT22;30950;53.086;21.576;2024-03-23T01:44:20;8.80;99.90
45207;DHT22;30950;53.086;21.576;2024-03-23T01:46:46;8.80;99.90
45207;DHT22;30950;53.086;21.576;2024-03-23T01:49:13;8.70;99.90
45207;DHT22;30950;53.086;21.576;2024-03-23T01:51:39;8.80;99.90
45207;DHT22;30950;53.086;21.576;2024-03-23T01:54:05;8.80;99.90
45207;DHT22;30950;53.086;21.576;2024-03-23T01:56:32;8.80;99.90
45207;DHT22;30950;53.086;21.576;2024-03-23T01:59:01;8.80;99.90
45207;DHT22;30950;53.086;21.576;2024-03-23T02:01:27;8.80;99.90
45207;DHT22;30950;53.086;21.576;2024-03-23T02:03:53;8.80;99.90
45207;DHT22;30950;53.086;21.576;2024-03-23T02:06:20;8.80;99.90
45207;DHT22;30950;53.086;21.576;2024-03-23T02:08:46;8.80;99.90
45207;DHT22;30950;53.086;21.576;2024-03-23T02:11:12;8.80;99.90
45207;DHT22;30950;53.086;21.576;2024-03-23T02:13:38;8.80;99.90
45207;DHT22;30950;53.086;21.576;2024-03-23T02:16:05;8.80;99.90
45207;DHT22;30950;53.086;21.576;2024-03-23T02:18:32;8.80;99.90
45207;DHT22;30950;53.086;21.576;2024-03-23T02:20:58;8.80;99.90
45207;DHT22;30950;53.086;21.576;2024-03-23T02:23:25;8.80;99.90
45207;DHT22;30950;53.086;21.576;2024-03-23T02:25:51;8.80;99.90
45207;DHT22;30950;53.086;21.576;2024-03-23T02:28:19;8.80;99.90
45207;DHT22;30950;53.086;21.576;2024-03-23T02:30:45;8.90;99.90
45207;DHT22;30950;53.086;21.576;2024-03-23T02:33:12;8.80;99.90
45207;DHT22;30950;53.086;21.576;2024-03-23T02:35:38;8.90;99.90
45207;DHT22;30950;53.086;21.576;2024-03-23T02:38:04;8.90;99.90
45207;DHT22;30950;53.086;21.576;2024-03-23T02:40:30;8.90;99.90
45207;DHT22;30950;53.086;21.576;2024-03-23T02:42:57;8.80;99.90
45207;DHT22;30950;53.086;21.576;2024-03-23T02:45:23;8.90;99.90
45207;DHT22;30950;53.086;21.576;2024-03-23T02:47:49;8.90;99.90
45207;DHT22;30950;53.086;21.576;2024-03-23T02:50:19;8.90;99.90
45207;DHT22;30950;53.086;21.576;2024-03-23T02:52:45;8.90;99.90
45207;DHT22;30950;53.086;21.576;2024-03-23T02:55:12;8.90;99.90
45207;DHT22;30950;53.086;21.576;2024-03-23T02:57:38;8.90;99.90
45207;DHT22;30950;53.086;21.576;2024-03-23T03:00:04;8.90;99.90
45207;DHT22;30950;53.086;21.576;2024-03-23T03:02:32;8.90;99.90
45207;DHT22;30950;53.086;21.576;2024-03-23T03:04:59;8.90;99.90
45207;DHT22;30950;53.086;21.576;2024-03-23T03:07:25;8.90;99.90
45207;DHT22;30950;53.086;21.576;2024-03-23T03:09:51;8.90;99.90
45207;DHT22;30950;53.086;21.576;2024-03-23T03:12:17;8.90;99.90
45207;DHT22;30950;53.086;21.576;2024-03-23T03:14:44;8.90;99.90
45207;DHT22;30950;53.086;21.576;2024-03-23T03:17:10;8.90;99.90
45207;DHT22;30950;53.086;21.576;2024-03-23T03:19:36;8.90;99.90
45207;DHT22;30950;53.086;21.576;2024-03-23T03:22:02;8.90;99.90
45207;DHT22;30950;53.086;21.576;2024-03-23T03:24:30;8.90;99.90
45207;DHT22;30950;53.086;21.576;2024-03-23T03:26:56;8.90;99.90
45207;DHT22;30950;53.086;21.576;2024-03-23T03:29:24;9.00;99.90
45207;DHT22;30950;53.086;21.576;2024-03-23T03:31:50;8.90;99.90
45207;DHT22;30950;53.086;21.576;2024-03-23T03:34:17;9.00;99.90
45207;DHT22;30950;53.086;21.576;2024-03-23T03:36:43;9.00;99.90
45207;DHT22;30950;53.086;21.576;2024-03-23T03:39:09;8.90;99.90
45207;DHT22;30950;53.086;21.576;2024-03-23T03:41:35;8.90;99.90
45207;DHT22;30950;53.086;21.576;2024-03-23T03:44:02;9.00;99.90
45207;DHT22;30950;53.086;21.576;2024-03-23T03:46:28;9.00;99.90
45207;DHT22;30950;53.086;21.576;2024-03-23T03:48:54;9.00;99.90
45207;DHT22;30950;53.086;21.576;2024-03-23T03:51:21;9.00;99.90
45207;DHT22;30950;53.086;21.576;2024-03-23T03:53:47;9.00;99.90
45207;DHT22;30950;53.086;21.576;2024-03-23T03:56:13;9.00;99.90
45207;DHT22;30950;53.086;21.576;2024-03-23T03:58:39;9.00;99.90
45207;DHT22;30950;53.086;21.576;2024-03-23T04:01:06;9.00;99.90
45207;DHT22;30950;53.086;21.576;2024-03-23T04:03:32;9.00;99.90
45207;DHT22;30950;53.086;21.576;2024-03-23T04:05:58;9.00;99.90
45207;DHT22;30950;53.086;21.576;2024-03-23T04:08:25;9.00;99.90
45207;DHT22;30950;53.086;21.576;2024-03-23T04:10:51;9.00;99.90
45207;DHT22;30950;53.086;21.576;2024-03-23T04:13:17;9.00;99.90
45207;DHT22;30950;53.086;21.576;2024-03-23T04:15:43;9.00;99.90
45207;DHT22;30950;53.086;21.576;2024-03-23T04:18:09;9.00;99.90
45207;DHT22;30950;53.086;21.576;2024-03-23T04:20:35;9.00;99.90
45207;DHT22;30950;53.086;21.576;2024-03-23T04:23:02;9.00;99.90
45207;DHT22;30950;53.086;21.576;2024-03-23T04:25:29;9.10;99.90
45207;DHT22;30950;53.086;21.576;2024-03-23T04:27:55;9.00;99.90
45207;DHT22;30950;53.086;21.576;2024-03-23T04:30:22;9.00;99.90
45207;DHT22;30950;53.086;21.576;2024-03-23T04:32:51;9.00;99.90
45207;DHT22;30950;53.086;21.576;2024-03-23T04:35:17;9.10;99.90
45207;DHT22;30950;53.086;21.576;2024-03-23T04:37:43;9.10;99.90
45207;DHT22;30950;53.086;21.576;2024-03-23T04:40:09;9.00;99.90
45207;DHT22;30950;53.086;21.576;2024-03-23T04:42:37;9.00;99.90
45207;DHT22;30950;53.086;21.576;2024-03-23T04:45:04;9.00;99.90
45207;DHT22;30950;53.086;21.576;2024-03-23T04:47:32;9.00;99.90
45207;DHT22;30950;53.086;21.576;2024-03-23T04:49:58;9.00;99.90
45207;DHT22;30950;53.086;21.576;2024-03-23T04:52:24;9.00;99.90
45207;DHT22;30950;53.086;21.576;2024-03-23T04:54:51;9.00;99.90
45207;DHT22;30950;53.086;21.576;2024-03-23T04:57:17;8.90;99.90
45207;DHT22;30950;53.086;21.576;2024-03-23T05:02:13;9.00;99.90
45207;DHT22;30950;53.086;21.576;2024-03-23T05:04:41;8.90;99.90
45207;DHT22;30950;53.086;21.576;2024-03-23T05:07:07;8.90;99.90
45207;DHT22;30950;53.086;21.576;2024-03-23T05:09:33;9.00;99.90
45207;DHT22;30950;53.086;21.576;2024-03-23T05:12:00;9.00;99.90
45207;DHT22;30950;53.086;21.576;2024-03-23T05:14:26;9.00;99.90
45207;DHT22;30950;53.086;21.576;2024-03-23T05:16:53;9.10;99.90
45207;DHT22;30950;53.086;21.576;2024-03-23T05:19:19;9.00;99.90
45207;DHT22;30950;53.086;21.576;2024-03-23T05:21:46;9.00;99.90
45207;DHT22;30950;53.086;21.576;2024-03-23T05:24:12;9.10;99.90
45207;DHT22;30950;53.086;21.576;2024-03-23T05:26:38;9.10;99.90
45207;DHT22;30950;53.086;21.576;2024-03-23T05:29:04;9.10;99.90
45207;DHT22;30950;53.086;21.576;2024-03-23T05:31:33;9.10;99.90
45207;DHT22;30950;53.086;21.576;2024-03-23T05:33:59;9.10;99.90
45207;DHT22;30950;53.086;21.576;2024-03-23T05:36:25;9.10;99.90
45207;DHT22;30950;53.086;21.576;2024-03-23T05:38:51;9.10;99.90
45207;DHT22;30950;53.086;21.576;2024-03-23T05:41:18;9.20;99.90
45207;DHT22;30950;53.086;21.576;2024-03-23T05:43:44;9.20;99.90
45207;DHT22;30950;53.086;21.576;2024-03-23T05:46:10;9.20;99.90
45207;DHT22;30950;53.086;21.576;2024-03-23T05:48:36;9.20;99.90
45207;DHT22;30950;53.086;21.576;2024-03-23T05:51:03;9.30;99.90
45207;DHT22;30950;53.086;21.576;2024-03-23T05:53:29;9.30;99.90
45207;DHT22;30950;53.086;21.576;2024-03-23T05:56:00;9.30;99.90
45207;DHT22;30950;53.086;21.576;2024-03-23T05:58:29;9.40;99.90
45207;DHT22;30950;53.086;21.576;2024-03-23T06:00:59;9.40;99.90
45207;DHT22;30950;53.086;21.576;2024-03-23T06:03:26;9.50;99.90
45207;DHT22;30950;53.086;21.576;2024-03-23T06:05:53;9.50;99.90
45207;DHT22;30950;53.086;21.576;2024-03-23T06:08:20;9.50;99.90
45207;DHT22;30950;53.086;21.576;2024-03-23T06:10:46;9.50;99.90
45207;DHT22;30950;53.086;21.576;2024-03-23T06:13:13;9.50;99.90
45207;DHT22;30950;53.086;21.576;2024-03-23T06:15:40;9.60;99.90
45207;DHT22;30950;53.086;21.576;2024-03-23T06:18:06;9.60;99.90
45207;DHT22;30950;53.086;21.576;2024-03-23T06:20:34;9.60;99.90
45207;DHT22;30950;53.086;21.576;2024-03-23T06:23:03;9.40;99.90
45207;DHT22;30950;53.086;21.576;2024-03-23T06:25:29;9.70;99.90
45207;DHT22;30950;53.086;21.576;2024-03-23T06:27:56;9.70;99.90
45207;DHT22;30950;53.086;21.576;2024-03-23T06:30:24;9.70;99.90
45207;DHT22;30950;53.086;21.576;2024-03-23T06:32:52;9.70;99.90
45207;DHT22;30950;53.086;21.576;2024-03-23T06:35:19;9.70;99.90
45207;DHT22;30950;53.086;21.576;2024-03-23T06:37:45;9.70;99.90
45207;DHT22;30950;53.086;21.576;2024-03-23T06:40:12;9.80;99.90
45207;DHT22;30950;53.086;21.576;2024-03-23T06:42:38;9.80;99.90
45207;DHT22;30950;53.086;21.576;2024-03-23T06:45:04;9.80;99.90
45207;DHT22;30950;53.086;21.576;2024-03-23T06:47:31;9.80;99.90
45207;DHT22;30950;53.086;21.576;2024-03-23T06:49:58;9.80;99.90
45207;DHT22;30950;53.086;21.576;2024-03-23T06:52:25;9.90;99.90
45207;DHT22;30950;53.086;21.576;2024-03-23T06:54:51;9.90;99.90
45207;DHT22;30950;53.086;21.576;2024-03-23T06:57:17;9.90;99.90
45207;DHT22;30950;53.086;21.576;2024-03-23T07:02:10;10.00;99.90
45207;DHT22;30950;53.086;21.576;2024-03-23T07:04:36;9.60;99.90
45207;DHT22;30950;53.086;21.576;2024-03-23T07:07:03;10.10;99.90
45207;DHT22;30950;53.086;21.576;2024-03-23T07:09:30;10.10;99.90
45207;DHT22;30950;53.086;21.576;2024-03-23T07:11:56;10.10;99.90
45207;DHT22;30950;53.086;21.576;2024-03-23T07:14:23;10.10;99.90
45207;DHT22;30950;53.086;21.576;2024-03-23T07:16:49;10.10;99.90
45207;DHT22;30950;53.086;21.576;2024-03-23T07:19:16;10.00;99.90
45207;DHT22;30950;53.086;21.576;2024-03-23T07:21:43;10.00;99.90
45207;DHT22;30950;53.086;21.576;2024-03-23T07:24:10;10.00;99.90
45207;DHT22;30950;53.086;21.576;2024-03-23T07:26:36;10.00;99.90
45207;DHT22;30950;53.086;21.576;2024-03-23T07:29:04;10.00;99.90
45207;DHT22;30950;53.086;21.576;2024-03-23T07:31:30;10.00;99.90
45207;DHT22;30950;53.086;21.576;2024-03-23T07:33:57;10.30;99.90
45207;DHT22;30950;53.086;21.576;2024-03-23T07:36:23;10.00;99.90
45207;DHT22;30950;53.086;21.576;2024-03-23T07:38:49;9.90;99.90
45207;DHT22;30950;53.086;21.576;2024-03-23T07:41:16;9.80;99.90
45207;DHT22;30950;53.086;21.576;2024-03-23T07:43:43;9.80;99.90
45207;DHT22;30950;53.086;21.576;2024-03-23T07:46:09;9.90;99.90
45207;DHT22;30950;53.086;21.576;2024-03-23T07:48:35;9.90;99.90
45207;DHT22;30950;53.086;21.576;2024-03-23T07:51:23;9.90;99.90
45207;DHT22;30950;53.086;21.576;2024-03-23T07:53:49;10.00;99.90
45207;DHT22;30950;53.086;21.576;2024-03-23T07:56:15;10.00;99.90
45207;DHT22;30950;53.086;21.576;2024-03-23T07:58:42;10.00;99.90
45207;DHT22;30950;53.086;21.576;2024-03-23T08:01:10;10.10;99.90
45207;DHT22;30950;53.086;21.576;2024-03-23T08:03:37;10.10;99.90
45207;DHT22;30950;53.086;21.576;2024-03-23T08:06:19;10.20;99.90
45207;DHT22;30950;53.086;21.576;2024-03-23T08:08:47;10.20;99.90
45207;DHT22;30950;53.086;21.576;2024-03-23T08:11:13;10.30;99.90
45207;DHT22;30950;53.086;21.576;2024-03-23T08:13:41;10.30;99.90
45207;DHT22;30950;53.086;21.576;2024-03-23T08:16:07;10.30;99.90
45207;DHT22;30950;53.086;21.576;2024-03-23T08:18:35;10.30;99.90
45207;DHT22;30950;53.086;21.576;2024-03-23T08:21:02;10.30;99.90
45207;DHT22;30950;53.086;21.576;2024-03-23T08:23:29;10.30;99.90
45207;DHT22;30950;53.086;21.576;2024-03-23T08:25:58;11.00;99.90
45207;DHT22;30950;53.086;21.576;2024-03-23T08:28:25;10.20;99.90
45207;DHT22;30950;53.086;21.576;2024-03-23T08:30:52;10.10;99.90
45207;DHT22;30950;53.086;21.576;2024-03-23T08:33:18;10.10;99.90
45207;DHT22;30950;53.086;21.576;2024-03-23T08:35:54;9.90;99.90
45207;DHT22;30950;53.086;21.576;2024-03-23T08:38:22;9.90;99.90
45207;DHT22;30950;53.086;21.576;2024-03-23T08:40:55;9.90;99.90
45207;DHT22;30950;53.086;21.576;2024-03-23T08:43:22;9.90;99.90
45207;DHT22;30950;53.086;21.576;2024-03-23T08:45:48;9.90;99.90
45207;DHT22;30950;53.086;21.576;2024-03-23T08:48:15;9.90;99.90
45207;DHT22;30950;53.086;21.576;2024-03-23T08:50:41;9.90;99.90
45207;DHT22;30950;53.086;21.576;2024-03-23T08:53:08;10.00;99.90
45207;DHT22;30950;53.086;21.576;2024-03-23T08:55:34;9.90;99.90
45207;DHT22;30950;53.086;21.576;2024-03-23T08:58:01;9.90;99.90
45207;DHT22;30950;53.086;21.576;2024-03-23T09:00:27;9.90;99.90
45207;DHT22;30950;53.086;21.576;2024-03-23T09:02:54;10.00;99.90
45207;DHT22;30950;53.086;21.576;2024-03-23T09:05:21;10.00;99.90
45207;DHT22;30950;53.086;21.576;2024-03-23T09:07:48;10.00;99.90
45207;DHT22;30950;53.086;21.576;2024-03-23T09:10:14;10.00;99.90
45207;DHT22;30950;53.086;21.576;2024-03-23T09:12:40;10.00;99.90
45207;DHT22;30950;53.086;21.576;2024-03-23T09:15:07;10.10;99.90
45207;DHT22;30950;53.086;21.576;2024-03-23T09:17:33;10.00;99.90
45207;DHT22;30950;53.086;21.576;2024-03-23T09:19:59;10.00;99.90
45207;DHT22;30950;53.086;21.576;2024-03-23T09:22:25;10.00;99.90
45207;DHT22;30950;53.086;21.576;2024-03-23T09:24:52;9.90;99.90
45207;DHT22;30950;53.086;21.576;2024-03-23T09:27:18;9.80;99.90
45207;DHT22;30950;53.086;21.576;2024-03-23T09:29:44;9.70;99.90
45207;DHT22;30950;53.086;21.576;2024-03-23T09:32:11;9.70;99.90
45207;DHT22;30950;53.086;21.576;2024-03-23T09:34:38;9.70;99.90
45207;DHT22;30950;53.086;21.576;2024-03-23T09:37:04;9.60;99.90
45207;DHT22;30950;53.086;21.576;2024-03-23T09:39:30;9.60;99.90
45207;DHT22;30950;53.086;21.576;2024-03-23T09:41:58;9.50;99.90
45207;DHT22;30950;53.086;21.576;2024-03-23T09:44:24;9.30;99.90
45207;DHT22;30950;53.086;21.576;2024-03-23T09:46:52;9.30;99.90
45207;DHT22;30950;53.086;21.576;2024-03-23T09:49:18;9.30;99.90
45207;DHT22;30950;53.086;21.576;2024-03-23T09:51:45;9.30;99.90
45207;DHT22;30950;53.086;21.576;2024-03-23T09:54:11;9.30;99.90
45207;DHT22;30950;53.086;21.576;2024-03-23T09:56:38;9.30;99.90
45207;DHT22;30950;53.086;21.576;2024-03-23T09:59:04;9.40;99.90
45207;DHT22;30950;53.086;21.576;2024-03-23T10:01:30;9.50;99.90
45207;DHT22;30950;53.086;21.576;2024-03-23T10:03:57;9.40;99.90
45207;DHT22;30950;53.086;21.576;2024-03-23T10:06:23;9.70;99.90
45207;DHT22;30950;53.086;21.576;2024-03-23T10:08:52;9.70;99.90
45207;DHT22;30950;53.086;21.576;2024-03-23T10:11:20;9.90;99.90
45207;DHT22;30950;53.086;21.576;2024-03-23T10:13:47;9.90;99.90
45207;DHT22;30950;53.086;21.576;2024-03-23T10:16:23;10.10;99.90
45207;DHT22;30950;53.086;21.576;2024-03-23T10:18:49;10.20;99.90
45207;DHT22;30950;53.086;21.576;2024-03-23T10:21:16;10.20;99.90
45207;DHT22;30950;53.086;21.576;2024-03-23T10:23:43;10.20;99.90
45207;DHT22;30950;53.086;21.576;2024-03-23T10:26:17;10.20;99.90
45207;DHT22;30950;53.086;21.576;2024-03-23T10:28:57;10.10;99.90
45207;DHT22;30950;53.086;21.576;2024-03-23T10:31:33;10.10;99.90
45207;DHT22;30950;53.086;21.576;2024-03-23T10:33:59;10.10;99.90
45207;DHT22;30950;53.086;21.576;2024-03-23T10:36:27;10.10;99.90
45207;DHT22;30950;53.086;21.576;2024-03-23T10:38:54;10.10;99.90
45207;DHT22;30950;53.086;21.576;2024-03-23T10:41:20;10.10;99.90
45207;DHT22;30950;53.086;21.576;2024-03-23T10:43:47;10.10;99.90
45207;DHT22;30950;53.086;21.576;2024-03-23T10:46:14;10.10;99.90
45207;DHT22;30950;53.086;21.576;2024-03-23T10:48:40;10.00;99.90
45207;DHT22;30950;53.086;21.576;2024-03-23T10:51:07;10.10;99.90
45207;DHT22;30950;53.086;21.576;2024-03-23T10:53:34;10.10;99.90
45207;DHT22;30950;53.086;21.576;2024-03-23T10:56:00;10.10;99.90
45207;DHT22;30950;53.086;21.576;2024-03-23T10:58:29;10.10;99.90
45207;DHT22;30950;53.086;21.576;2024-03-23T11:00:56;10.10;99.90
45207;DHT22;30950;53.086;21.576;2024-03-23T11:03:32;9.70;99.90
45207;DHT22;30950;53.086;21.576;2024-03-23T11:05:59;10.10;99.90
45207;DHT22;30950;53.086;21.576;2024-03-23T11:08:40;10.10;99.90
45207;DHT22;30950;53.086;21.576;2024-03-23T11:11:15;10.20;99.90
45207;DHT22;30950;53.086;21.576;2024-03-23T11:13:42;10.10;99.90
45207;DHT22;30950;53.086;21.576;2024-03-23T11:16:12;10.10;99.90
45207;DHT22;30950;53.086;21.576;2024-03-23T11:18:39;10.10;99.90
45207;DHT22;30950;53.086;21.576;2024-03-23T11:21:09;10.10;99.90
45207;DHT22;30950;53.086;21.576;2024-03-23T11:23:35;10.10;99.90
45207;DHT22;30950;53.086;21.576;2024-03-23T11:26:02;10.10;99.90
45207;DHT22;30950;53.086;21.576;2024-03-23T11:28:30;10.10;99.90
45207;DHT22;30950;53.086;21.576;2024-03-23T11:30:56;10.00;99.90
45207;DHT22;30950;53.086;21.576;2024-03-23T11:33:22;10.10;99.90
45207;DHT22;30950;53.086;21.576;2024-03-23T11:35:49;10.20;99.90
45207;DHT22;30950;53.086;21.576;2024-03-23T11:38:17;10.20;99.90
45207;DHT22;30950;53.086;21.576;2024-03-23T11:40:45;10.30;99.90
45207;DHT22;30950;53.086;21.576;2024-03-23T11:43:16;10.20;99.90
45207;DHT22;30950;53.086;21.576;2024-03-23T11:45:47;10.30;99.90
45207;DHT22;30950;53.086;21.576;2024-03-23T11:48:19;10.30;99.90
45207;DHT22;30950;53.086;21.576;2024-03-23T11:50:53;10.30;99.90
45207;DHT22;30950;53.086;21.576;2024-03-23T11:53:20;10.30;99.90
45207;DHT22;30950;53.086;21.576;2024-03-23T11:55:48;10.30;99.90
45207;DHT22;30950;53.086;21.576;2024-03-23T11:58:14;10.30;99.90
45207;DHT22;30950;53.086;21.576;2024-03-23T12:00:41;10.30;99.90
45207;DHT22;30950;53.086;21.576;2024-03-23T12:03:07;10.30;99.90
45207;DHT22;30950;53.086;21.576;2024-03-23T12:05:36;10.30;99.90
45207;DHT22;30950;53.086;21.576;2024-03-23T12:10:47;10.40;99.90
45207;DHT22;30950;53.086;21.576;2024-03-23T12:13:17;10.40;99.90
45207;DHT22;30950;53.086;21.576;2024-03-23T12:15:44;10.40;99.90
45207;DHT22;30950;53.086;21.576;2024-03-23T12:18:10;10.50;99.90
45207;DHT22;30950;53.086;21.576;2024-03-23T12:20:37;10.40;99.90
45207;DHT22;30950;53.086;21.576;2024-03-23T12:23:07;10.40;99.90
45207;DHT22;30950;53.086;21.576;2024-03-23T12:25:35;10.50;99.90
45207;DHT22;30950;53.086;21.576;2024-03-23T12:28:01;10.50;99.90
45207;DHT22;30950;53.086;21.576;2024-03-23T12:30:28;10.50;99.90
45207;DHT22;30950;53.086;21.576;2024-03-23T12:32:54;10.50;99.90
45207;DHT22;30950;53.086;21.576;2024-03-23T12:35:20;10.50;99.90
45207;DHT22;30950;53.086;21.576;2024-03-23T12:37:47;10.70;99.90
45207;DHT22;30950;53.086;21.576;2024-03-23T12:40:13;10.70;99.90
45207;DHT22;30950;53.086;21.576;2024-03-23T12:42:39;10.90;99.90
45207;DHT22;30950;53.086;21.576;2024-03-23T12:45:06;11.30;99.90
45207;DHT22;30950;53.086;21.576;2024-03-23T12:47:32;11.00;99.90
45207;DHT22;30950;53.086;21.576;2024-03-23T12:49:58;11.20;99.90
45207;DHT22;30950;53.086;21.576;2024-03-23T12:52:24;11.20;99.90
45207;DHT22;30950;53.086;21.576;2024-03-23T12:54:57;11.20;99.90
45207;DHT22;30950;53.086;21.576;2024-03-23T12:57:24;11.20;99.90
45207;DHT22;30950;53.086;21.576;2024-03-23T12:59:51;11.30;99.90
45207;DHT22;30950;53.086;21.576;2024-03-23T13:02:19;11.30;99.90
45207;DHT22;30950;53.086;21.576;2024-03-23T13:04:46;11.50;99.90
45207;DHT22;30950;53.086;21.576;2024-03-23T13:07:12;11.50;99.90
45207;DHT22;30950;53.086;21.576;2024-03-23T13:09:38;11.60;99.90
45207;DHT22;30950;53.086;21.576;2024-03-23T13:12:05;11.60;99.90
45207;DHT22;30950;53.086;21.576;2024-03-23T13:14:31;11.70;99.90
45207;DHT22;30950;53.086;21.576;2024-03-23T13:16:57;11.70;99.90
45207;DHT22;30950;53.086;21.576;2024-03-23T13:19:24;11.80;99.90
45207;DHT22;30950;53.086;21.576;2024-03-23T13:21:54;11.80;99.90
45207;DHT22;30950;53.086;21.576;2024-03-23T13:24:21;11.80;99.90
45207;DHT22;30950;53.086;21.576;2024-03-23T13:26:48;11.90;99.90
45207;DHT22;30950;53.086;21.576;2024-03-23T13:29:15;11.80;99.90
45207;DHT22;30950;53.086;21.576;2024-03-23T13:31:41;11.70;99.90
45207;DHT22;30950;53.086;21.576;2024-03-23T13:34:07;11.70;99.90
45207;DHT22;30950;53.086;21.576;2024-03-23T13:36:34;11.80;99.90
45207;DHT22;30950;53.086;21.576;2024-03-23T13:39:04;11.70;99.90
45207;DHT22;30950;53.086;21.576;2024-03-23T13:41:46;11.70;99.90
45207;DHT22;30950;53.086;21.576;2024-03-23T13:44:12;11.80;99.90
45207;DHT22;30950;53.086;21.576;2024-03-23T13:46:40;11.80;99.90
45207;DHT22;30950;53.086;21.576;2024-03-23T13:49:18;11.90;99.90
45207;DHT22;30950;53.086;21.576;2024-03-23T13:51:46;12.00;99.90
45207;DHT22;30950;53.086;21.576;2024-03-23T13:54:12;12.00;99.90
45207;DHT22;30950;53.086;21.576;2024-03-23T13:56:38;12.10;99.90
45207;DHT22;30950;53.086;21.576;2024-03-23T13:59:05;12.10;99.90
45207;DHT22;30950;53.086;21.576;2024-03-23T14:01:31;12.10;99.90
45207;DHT22;30950;53.086;21.576;2024-03-23T14:03:58;12.20;99.90
45207;DHT22;30950;53.086;21.576;2024-03-23T14:06:24;12.40;99.90
45207;DHT22;30950;53.086;21.576;2024-03-23T14:08:50;12.30;99.90
45207;DHT22;30950;53.086;21.576;2024-03-23T14:11:17;12.30;99.90
45207;DHT22;30950;53.086;21.576;2024-03-23T14:13:44;12.20;99.90
45207;DHT22;30950;53.086;21.576;2024-03-23T14:16:10;12.40;99.90
45207;DHT22;30950;53.086;21.576;2024-03-23T14:18:37;12.10;99.90
45207;DHT22;30950;53.086;21.576;2024-03-23T14:21:03;12.10;99.90
45207;DHT22;30950;53.086;21.576;2024-03-23T14:23:30;12.00;99.90
45207;DHT22;30950;53.086;21.576;2024-03-23T14:26:00;12.00;99.90
45207;DHT22;30950;53.086;21.576;2024-03-23T14:28:26;12.00;99.90
45207;DHT22;30950;53.086;21.576;2024-03-23T14:30:55;11.90;99.90
45207;DHT22;30950;53.086;21.576;2024-03-23T14:33:21;11.90;99.90
45207;DHT22;30950;53.086;21.576;2024-03-23T14:35:54;11.80;99.90
45207;DHT22;30950;53.086;21.576;2024-03-23T14:38:21;11.80;99.90
45207;DHT22;30950;53.086;21.576;2024-03-23T14:40:47;11.70;99.90
45207;DHT22;30950;53.086;21.576;2024-03-23T14:43:14;11.60;99.90
45207;DHT22;30950;53.086;21.576;2024-03-23T14:48:29;11.50;99.90
45207;DHT22;30950;53.086;21.576;2024-03-23T14:50:58;11.10;99.90
45207;DHT22;30950;53.086;21.576;2024-03-23T14:53:26;11.30;99.90
45207;DHT22;30950;53.086;21.576;2024-03-23T14:56:04;11.10;99.90
45207;DHT22;30950;53.086;21.576;2024-03-23T14:58:31;11.10;99.90
45207;DHT22;30950;53.086;21.576;2024-03-23T15:01:09;10.90;99.90
45207;DHT22;30950;53.086;21.576;2024-03-23T15:03:39;10.90;99.90
45207;DHT22;30950;53.086;21.576;2024-03-23T15:06:06;10.80;99.90
45207;DHT22;30950;53.086;21.576;2024-03-23T15:08:32;10.70;99.90
45207;DHT22;30950;53.086;21.576;2024-03-23T15:10:59;10.60;99.90
45207;DHT22;30950;53.086;21.576;2024-03-23T15:13:25;10.40;99.90
45207;DHT22;30950;53.086;21.576;2024-03-23T15:15:51;10.40;99.90
45207;DHT22;30950;53.086;21.576;2024-03-23T15:18:18;10.30;99.90
45207;DHT22;30950;53.086;21.576;2024-03-23T15:20:55;10.20;99.90
45207;DHT22;30950;53.086;21.576;2024-03-23T15:23:22;10.20;99.90
45207;DHT22;30950;53.086;21.576;2024-03-23T15:25:55;10.10;99.90
45207;DHT22;30950;53.086;21.576;2024-03-23T15:28:22;9.90;99.90
45207;DHT22;30950;53.086;21.576;2024-03-23T15:30:49;9.80;99.90
45207;DHT22;30950;53.086;21.576;2024-03-23T15:33:15;9.80;99.90
45207;DHT22;30950;53.086;21.576;2024-03-23T15:35:41;9.80;99.90
45207;DHT22;30950;53.086;21.576;2024-03-23T15:38:08;9.70;99.90
45207;DHT22;30950;53.086;21.576;2024-03-23T15:40:35;9.70;99.90
45207;DHT22;30950;53.086;21.576;2024-03-23T15:43:02;9.70;99.90
45207;DHT22;30950;53.086;21.576;2024-03-23T15:45:28;9.70;99.90
45207;DHT22;30950;53.086;21.576;2024-03-23T15:47:54;9.70;99.90
45207;DHT22;30950;53.086;21.576;2024-03-23T15:50:20;9.70;99.90
45207;DHT22;30950;53.086;21.576;2024-03-23T15:52:47;9.60;99.90
45207;DHT22;30950;53.086;21.576;2024-03-23T15:55:13;9.70;99.90
45207;DHT22;30950;53.086;21.576;2024-03-23T15:57:39;9.70;99.90
45207;DHT22;30950;53.086;21.576;2024-03-23T16:00:06;9.70;99.90
45207;DHT22;30950;53.086;21.576;2024-03-23T16:02:38;9.80;99.90
45207;DHT22;30950;53.086;21.576;2024-03-23T16:05:05;9.80;99.90
45207;DHT22;30950;53.086;21.576;2024-03-23T16:07:31;9.70;99.90
45207;DHT22;30950;53.086;21.576;2024-03-23T16:09:57;9.70;99.90
45207;DHT22;30950;53.086;21.576;2024-03-23T16:12:30;9.70;99.90
45207;DHT22;30950;53.086;21.576;2024-03-23T16:14:56;9.70;99.90
45207;DHT22;30950;53.086;21.576;2024-03-23T16:17:23;9.70;99.90
45207;DHT22;30950;53.086;21.576;2024-03-23T16:19:49;9.70;99.90
45207;DHT22;30950;53.086;21.576;2024-03-23T16:22:15;9.70;99.90
45207;DHT22;30950;53.086;21.576;2024-03-23T16:24:41;9.70;99.90
45207;DHT22;30950;53.086;21.576;2024-03-23T16:27:08;9.70;99.90
45207;DHT22;30950;53.086;21.576;2024-03-23T16:29:34;9.60;99.90